Time;durP1;ratioP1;P1;durP2;ratioP2;P2;SDS_P1;SDS_P2;PMS_P1;PMS_P2;Temp;Humidity;BMP_temperature;BMP_pressure;BME280_temperature;BME280_humidity;BME280_pressure;Samples;Min_cycle;Max_cycle;Signal;HPM_P1;HPM_P2
2023/12/22 00:00:10;;;;;;;7.20;1.70;;;;;;;4.78;100.00;96737.87;110794;242;155700;-59
2023/12/22 00:03:06;;;;;;;6.60;2.50;;;;;;;4.73;100.00;96732.70;110926;244;39579;-56
2023/12/22 00:05:46;;;;;;;5.20;1.90;;;;;;;4.70;100.00;96732.55;110861;242;155695;-59
2023/12/22 00:08:27;;;;;;;5.90;1.70;;;;;;;4.69;100.00;96724.51;110946;244;39918;-56
2023/12/22 00:11:07;;;;;;;7.90;2.30;;;;;;;4.65;100.00;96724.48;110913;244;39895;-59
2023/12/22 00:13:44;;;;;;;10.50;3.30;;;;;;;4.58;100.00;96730.95;110993;244;39633;-60
2023/12/22 00:16:19;;;;;;;7.30;2.20;;;;;;;4.51;100.00;96733.00;111031;244;39882;-57
2023/12/22 00:18:55;;;;;;;8.60;2.10;;;;;;;4.44;100.00;96734.50;110914;244;154154;-57
2023/12/22 00:21:36;;;;;;;9.70;2.60;;;;;;;4.37;100.00;96729.25;111060;244;39456;-57
2023/12/22 00:24:18;;;;;;;9.50;2.00;;;;;;;4.34;100.00;96729.61;110873;242;154835;-57
2023/12/22 00:26:58;;;;;;;7.60;2.00;;;;;;;4.31;99.97;96729.55;110997;244;39741;-57
2023/12/22 00:29:41;;;;;;;7.90;2.30;;;;;;;4.30;100.00;96731.88;110792;242;155291;-56
2023/12/22 00:32:25;;;;;;;7.60;2.10;;;;;;;4.29;99.88;96739.71;110932;244;40013;-59
2023/12/22 00:35:06;;;;;;;11.20;2.00;;;;;;;4.24;99.78;96737.80;110910;244;39520;-60
2023/12/22 00:37:46;;;;;;;7.70;2.00;;;;;;;4.18;99.72;96748.60;110844;242;154456;-56
2023/12/22 00:40:24;;;;;;;8.30;2.00;;;;;;;4.12;99.59;96752.05;110919;244;40875;-55
2023/12/22 00:43:04;;;;;;;8.00;2.10;;;;;;;4.06;99.57;96758.35;110822;244;154691;-59
2023/12/22 00:45:41;;;;;;;8.60;2.00;;;;;;;4.01;99.36;96758.40;110901;244;39210;-56
2023/12/22 00:48:22;;;;;;;10.10;2.80;;;;;;;3.97;99.41;96772.75;110790;242;154118;-59
2023/12/22 00:51:04;;;;;;;7.20;1.90;;;;;;;3.92;99.18;96774.83;110940;244;39781;-58
2023/12/22 00:53:44;;;;;;;8.90;2.30;;;;;;;3.89;99.07;96775.67;110839;242;154709;-58
2023/12/22 00:56:27;;;;;;;12.70;2.50;;;;;;;3.89;98.86;96772.63;111005;244;39194;-56
2023/12/22 00:59:07;;;;;;;10.50;2.60;;;;;;;3.85;98.77;96774.95;110971;244;40566;-56
2023/12/22 01:01:47;;;;;;;10.00;2.00;;;;;;;3.82;98.77;96781.67;110853;244;41053;-59
2023/12/22 01:04:29;;;;;;;9.10;2.10;;;;;;;3.80;98.56;96779.16;111023;244;39314;-59
2023/12/22 01:07:05;;;;;;;8.70;2.80;;;;;;;3.77;98.44;96778.95;111011;244;39088;-57
2023/12/22 01:09:40;;;;;;;12.20;2.70;;;;;;;3.72;98.35;96771.52;110997;244;39121;-57
2023/12/22 01:12:17;;;;;;;13.10;2.90;;;;;;;3.68;98.18;96771.22;110860;242;154165;-57
2023/12/22 01:14:59;;;;;;;11.50;2.40;;;;;;;3.70;98.06;96772.27;110945;244;41255;-56
2023/12/22 01:17:45;;;;;;;14.00;2.70;;;;;;;3.70;97.61;96765.81;110892;242;153530;-55
2023/12/22 01:20:26;;;;;;;13.40;2.40;;;;;;;3.70;97.67;96768.98;110986;244;40826;-55
2023/12/22 01:23:04;;;;;;;11.50;2.00;;;;;;;3.62;97.58;96766.70;110964;244;39769;-56
2023/12/22 01:25:51;;;;;;;10.80;2.00;;;;;;;3.56;97.52;96762.59;110777;241;155313;-57
2023/12/22 01:28:25;;;;;;;12.30;2.80;;;;;;;3.55;97.50;96758.20;110998;244;40178;-59
2023/12/22 01:31:04;;;;;;;12.50;2.20;;;;;;;3.57;97.46;96753.33;110889;243;155280;-59
2023/12/22 01:33:43;;;;;;;11.60;2.50;;;;;;;3.60;97.40;96755.73;110941;244;39672;-59
2023/12/22 01:36:22;;;;;;;9.80;2.40;;;;;;;3.61;97.36;96748.07;110827;242;154159;-59
2023/12/22 01:39:05;;;;;;;10.30;3.60;;;;;;;3.59;97.11;96759.45;110953;244;39123;-59
2023/12/22 01:41:47;;;;;;;14.50;2.80;;;;;;;3.59;97.14;96754.48;110853;241;154197;-56
2023/12/22 01:44:29;;;;;;;11.60;2.50;;;;;;;3.63;97.08;96757.20;110948;244;39579;-56
2023/12/22 01:47:05;;;;;;;9.20;2.20;;;;;;;3.66;97.08;96760.24;110957;244;39483;-56
2023/12/22 01:49:42;;;;;;;13.30;2.70;;;;;;;3.66;97.01;96760.88;110850;241;155338;-56
2023/12/22 01:52:18;;;;;;;14.90;2.60;;;;;;;3.69;96.85;96764.25;111056;244;39195;-59
2023/12/22 01:54:55;;;;;;;12.20;2.70;;;;;;;3.73;96.62;96766.20;110872;242;155369;-60
2023/12/22 01:57:40;;;;;;;9.20;2.40;;;;;;;3.75;96.56;96767.89;111074;244;40139;-57
2023/12/22 02:00:18;;;;;;;15.40;2.90;;;;;;;3.77;96.44;96773.06;110845;242;154015;-57
2023/12/22 02:02:53;;;;;;;11.60;3.50;;;;;;;3.82;96.45;96782.16;111004;244;39601;-57
2023/12/22 02:05:35;;;;;;;11.10;2.30;;;;;;;3.88;96.42;96778.55;110883;244;155657;-57
2023/12/22 02:08:11;;;;;;;12.10;3.20;;;;;;;3.93;96.09;96774.05;110952;244;40374;-59
2023/12/22 02:10:51;;;;;;;10.80;2.40;;;;;;;3.97;95.70;96769.76;111001;244;39172;-59
2023/12/22 02:13:34;;;;;;;12.90;2.60;;;;;;;3.98;95.28;96767.75;110811;241;155233;-60
2023/12/22 02:16:19;;;;;;;12.70;3.10;;;;;;;3.97;95.26;96767.79;110974;244;39733;-57
2023/12/22 02:19:00;;;;;;;14.20;2.40;;;;;;;3.96;95.23;96768.83;110826;242;153700;-56
2023/12/22 02:21:34;;;;;;;16.50;3.00;;;;;;;3.96;94.53;96756.00;110983;244;40088;-56
2023/12/22 02:24:11;;;;;;;11.60;3.00;;;;;;;3.96;94.55;96752.07;110847;241;154280;-55
2023/12/22 02:26:56;;;;;;;13.40;2.40;;;;;;;3.95;94.46;96750.11;110919;243;39797;-55
2023/12/22 02:29:36;;;;;;;14.70;2.90;;;;;;;3.94;94.42;96752.60;110931;241;154460;-55
2023/12/22 02:32:22;;;;;;;11.50;2.80;;;;;;;3.94;94.37;96749.94;110964;243;39079;-56
2023/12/22 02:35:09;;;;;;;9.00;2.50;;;;;;;3.91;93.38;96752.55;111050;243;40153;-56
2023/12/22 02:37:46;;;;;;;9.00;2.50;;;;;;;3.89;93.55;96740.92;110842;241;154119;-59
2023/12/22 02:40:26;;;;;;;10.70;2.40;;;;;;;3.84;93.82;96742.66;111064;243;39035;-58
2023/12/22 02:43:03;;;;;;;7.60;2.40;;;;;;;3.84;93.77;96745.66;110897;241;154097;-59
2023/12/22 02:45:43;;;;;;;10.60;2.80;;;;;;;3.89;93.66;96750.52;111111;243;40242;-59
2023/12/22 02:48:25;;;;;;;12.90;2.60;;;;;;;3.94;93.72;96745.05;110941;241;155363;-60
2023/12/22 02:51:03;;;;;;;8.80;2.20;;;;;;;3.96;93.73;96745.48;111033;243;39609;-56
2023/12/22 02:53:45;;;;;;;9.50;3.20;;;;;;;3.98;93.80;96741.80;110946;243;153713;-57
2023/12/22 02:56:23;;;;;;;9.90;2.50;;;;;;;4.04;93.32;96733.15;110969;243;39347;-60
2023/12/22 02:59:03;;;;;;;12.00;2.30;;;;;;;4.10;93.21;96735.19;111050;243;40435;-60
2023/12/22 03:01:41;;;;;;;11.90;3.30;;;;;;;4.13;93.24;96729.71;110842;241;154685;-59
2023/12/22 03:04:19;;;;;;;10.80;2.50;;;;;;;4.14;93.04;96735.73;111056;243;39171;-59
2023/12/22 03:07:06;;;;;;;9.60;2.40;;;;;;;4.15;92.79;96735.50;110835;241;155526;-59
2023/12/22 03:09:46;;;;;;;11.00;3.10;;;;;;;4.16;92.84;96752.51;111043;243;39828;-59
2023/12/22 03:12:26;;;;;;;10.40;2.60;;;;;;;4.15;93.29;96751.59;110925;242;154196;-57
2023/12/22 03:15:06;;;;;;;9.80;2.80;;;;;;;4.17;93.40;96759.09;111006;243;40027;-57
2023/12/22 03:17:42;;;;;;;11.20;2.90;;;;;;;4.15;93.72;96756.50;110993;241;155357;-59
2023/12/22 03:20:22;;;;;;;7.60;2.70;;;;;;;4.11;93.88;96758.29;111013;243;39587;-59
2023/12/22 03:23:00;;;;;;;11.40;2.80;;;;;;;4.09;93.96;96751.36;111128;243;39805;-59
2023/12/22 03:25:37;;;;;;;9.30;2.40;;;;;;;4.05;94.09;96748.13;110926;241;154749;-59
2023/12/22 03:28:17;;;;;;;8.50;2.30;;;;;;;4.05;94.06;96741.77;111145;243;39243;-59
2023/12/22 03:30:53;;;;;;;9.90;2.30;;;;;;;4.01;94.19;96742.50;110931;243;154550;-56
2023/12/22 03:33:33;;;;;;;11.90;3.00;;;;;;;3.98;94.13;96738.42;111036;243;39928;-56
2023/12/22 03:36:09;;;;;;;9.40;2.30;;;;;;;3.99;94.12;96737.66;110959;242;154317;-59
2023/12/22 03:38:46;;;;;;;9.00;2.30;;;;;;;3.98;94.08;96738.74;110965;243;40219;-59
2023/12/22 03:41:26;;;;;;;10.90;3.20;;;;;;;3.98;94.08;96741.91;111073;243;39248;-56
2023/12/22 03:44:03;;;;;;;22.30;4.90;;;;;;;3.97;94.03;96739.68;110952;244;39603;-56
2023/12/22 03:46:42;;;;;;;9.80;2.90;;;;;;;3.97;93.90;96744.87;111024;244;40537;-56
2023/12/22 03:49:19;;;;;;;11.10;3.30;;;;;;;3.94;94.14;96753.67;110831;242;154131;-56
2023/12/22 03:51:55;;;;;;;10.00;2.60;;;;;;;3.91;94.20;96753.23;111039;243;39325;-58
2023/12/22 03:54:34;;;;;;;9.20;2.60;;;;;;;3.91;94.19;96759.64;110858;242;157480;-59
2023/12/22 03:57:16;;;;;;;13.30;5.20;;;;;;;3.92;94.20;96755.67;111005;243;41418;-56
2023/12/22 03:59:56;;;;;;;12.00;3.70;;;;;;;3.94;93.98;96751.41;110884;242;154189;-56
2023/12/22 04:02:37;;;;;;;14.90;3.90;;;;;;;3.89;94.21;96749.03;110998;244;39931;-56
2023/12/22 04:05:16;;;;;;;9.00;2.90;;;;;;;3.89;94.20;96749.13;111056;243;40592;-56
2023/12/22 04:07:55;;;;;;;12.00;2.50;;;;;;;3.88;94.27;96749.27;110868;241;154967;-56
2023/12/22 04:10:34;;;;;;;12.20;2.60;;;;;;;3.90;94.12;96743.08;111130;243;39880;-56
2023/12/22 04:13:19;;;;;;;9.60;2.40;;;;;;;3.88;94.18;96746.71;110904;241;154171;-57
2023/12/22 04:15:59;;;;;;;9.80;2.30;;;;;;;3.84;93.94;96749.55;111077;243;40045;-56
2023/12/22 04:18:37;;;;;;;14.50;2.80;;;;;;;3.80;93.99;96741.63;110837;242;153155;-56
2023/12/22 04:21:14;;;;;;;13.20;2.90;;;;;;;3.80;93.84;96732.34;111063;243;39442;-60
2023/12/22 04:23:50;;;;;;;8.90;3.50;;;;;;;3.76;93.73;96748.09;110904;242;153544;-59
2023/12/22 04:26:32;;;;;;;14.60;2.90;;;;;;;3.72;93.45;96743.39;110967;243;39129;-57
2023/12/22 04:29:10;;;;;;;12.10;2.80;;;;;;;3.66;93.43;96747.68;111035;243;39040;-56
2023/12/22 04:31:51;;;;;;;7.30;2.20;;;;;;;3.63;93.43;96748.16;110831;241;154757;-56
2023/12/22 04:34:29;;;;;;;7.90;2.40;;;;;;;3.62;93.24;96753.98;111030;243;39592;-56
2023/12/22 04:37:12;;;;;;;11.30;2.40;;;;;;;3.61;93.39;96761.83;110838;241;154267;-56
2023/12/22 04:39:51;;;;;;;9.50;2.20;;;;;;;3.60;93.15;96761.66;111019;243;39710;-56
2023/12/22 04:42:31;;;;;;;7.70;2.00;;;;;;;3.57;93.10;96767.52;110873;243;155018;-59
2023/12/22 04:45:09;;;;;;;9.10;2.40;;;;;;;3.61;93.22;96771.27;111026;243;39709;-60
2023/12/22 04:47:46;;;;;;;9.50;2.90;;;;;;;3.64;93.11;96757.02;110995;242;153251;-57
2023/12/22 04:50:30;;;;;;;13.70;2.60;;;;;;;3.64;93.07;96753.23;110997;243;40665;-59
2023/12/22 04:53:08;;;;;;;13.20;2.80;;;;;;;3.62;93.06;96753.90;111137;243;39924;-59
2023/12/22 04:55:49;;;;;;;8.80;2.30;;;;;;;3.55;92.90;96758.04;110892;241;155454;-56
2023/12/22 04:58:28;;;;;;;11.90;2.80;;;;;;;3.45;92.75;96761.23;111083;243;39223;-55
2023/12/22 05:01:05;;;;;;;11.60;2.90;;;;;;;3.40;92.92;96765.31;110885;241;154843;-59
2023/12/22 05:03:43;;;;;;;11.20;2.70;;;;;;;3.39;92.86;96771.39;111012;243;39272;-59
2023/12/22 05:06:23;;;;;;;7.80;2.40;;;;;;;3.39;92.98;96778.16;110944;242;154636;-60
2023/12/22 05:09:06;;;;;;;14.20;3.10;;;;;;;3.41;93.07;96776.83;111014;243;39453;-60
2023/12/22 05:11:46;;;;;;;6.50;2.20;;;;;;;3.43;92.95;96782.52;110914;242;154266;-59
2023/12/22 05:14:25;;;;;;;7.70;2.20;;;;;;;3.42;92.80;96782.61;110949;243;39755;-60
2023/12/22 05:17:01;;;;;;;10.00;2.70;;;;;;;3.42;92.69;96794.52;111011;243;39538;-59
2023/12/22 05:19:42;;;;;;;8.30;2.30;;;;;;;3.44;92.79;96805.16;110848;241;153983;-59
2023/12/22 05:22:18;;;;;;;11.00;2.40;;;;;;;3.47;92.40;96803.21;111071;243;39486;-57
2023/12/22 05:24:59;;;;;;;9.20;3.00;;;;;;;3.49;92.54;96807.23;110835;241;154768;-56
2023/12/22 05:27:36;;;;;;;9.60;2.90;;;;;;;3.47;92.45;96809.50;111060;243;40565;-59
2023/12/22 05:30:15;;;;;;;18.50;2.80;;;;;;;3.45;92.45;96804.77;110885;242;154179;-59
2023/12/22 05:32:56;;;;;;;8.00;2.70;;;;;;;3.43;92.58;96804.52;111029;243;39550;-60
2023/12/22 05:35:31;;;;;;;11.90;3.20;;;;;;;3.43;92.57;96806.74;111060;243;39834;-60
2023/12/22 05:38:11;;;;;;;11.20;2.50;;;;;;;3.43;92.56;96806.10;111050;243;39251;-61
2023/12/22 05:40:56;;;;;;;10.00;2.90;;;;;;;3.47;92.49;96806.88;111106;243;40890;-60
2023/12/22 05:43:36;;;;;;;9.60;2.60;;;;;;;3.47;92.47;96811.68;110850;242;154070;-59
2023/12/22 05:46:16;;;;;;;10.90;3.50;;;;;;;3.46;92.48;96815.84;111103;243;39479;-59
2023/12/22 05:48:59;;;;;;;10.80;2.80;;;;;;;3.47;92.42;96818.36;110874;243;154287;-59
2023/12/22 05:51:45;;;;;;;9.60;2.30;;;;;;;3.49;92.24;96817.66;111084;243;39009;-58
2023/12/22 05:54:25;;;;;;;9.60;2.80;;;;;;;3.50;92.33;96819.50;110851;242;155459;-57
2023/12/22 05:57:01;;;;;;;9.60;3.20;;;;;;;3.50;92.34;96814.00;110998;243;39956;-61
2023/12/22 05:59:37;;;;;;;10.90;3.00;;;;;;;3.50;92.31;96810.48;110950;241;154161;-60
2023/12/22 06:02:19;;;;;;;12.90;3.00;;;;;;;3.54;92.08;96815.90;110944;243;40654;-57
2023/12/22 06:05:00;;;;;;;12.00;2.80;;;;;;;3.55;92.27;96815.55;111031;243;40256;-57
2023/12/22 06:07:36;;;;;;;13.50;2.90;;;;;;;3.56;91.64;96815.59;110880;241;154361;-57
2023/12/22 06:10:11;;;;;;;12.10;2.60;;;;;;;3.55;91.16;96818.88;111068;243;39989;-57
2023/12/22 06:12:50;;;;;;;12.30;3.10;;;;;;;3.52;91.08;96827.02;110884;241;153444;-60
2023/12/22 06:15:24;;;;;;;13.60;3.60;;;;;;;3.50;90.83;96828.58;111033;243;39970;-59
2023/12/22 06:18:11;;;;;;;11.60;2.80;;;;;;;3.46;90.80;96830.29;110999;241;153747;-57
2023/12/22 06:20:53;;;;;;;13.40;3.20;;;;;;;3.40;90.80;96833.35;111022;243;39816;-57
2023/12/22 06:23:27;;;;;;;12.60;3.10;;;;;;;3.36;90.23;96836.98;111109;243;39591;-56
2023/12/22 06:26:08;;;;;;;16.10;2.80;;;;;;;3.35;89.93;96836.06;110947;243;40814;-56
2023/12/22 06:28:53;;;;;;;10.40;2.90;;;;;;;3.34;90.03;96845.38;111040;243;40918;-56
2023/12/22 06:31:28;;;;;;;11.20;2.70;;;;;;;3.33;89.75;96842.41;111101;243;39808;-57
2023/12/22 06:34:11;;;;;;;12.70;2.70;;;;;;;3.34;89.46;96853.68;111066;243;38814;-57
2023/12/22 06:36:53;;;;;;;12.50;2.60;;;;;;;3.34;89.44;96855.37;111073;243;39529;-60
2023/12/22 06:39:31;;;;;;;14.50;3.00;;;;;;;3.36;88.55;96861.16;111047;243;39332;-58
2023/12/22 06:42:10;;;;;;;13.60;3.40;;;;;;;3.37;88.51;96863.58;110913;243;154988;-56
2023/12/22 06:44:49;;;;;;;15.90;3.00;;;;;;;3.35;88.70;96865.23;110805;243;41755;-57
2023/12/22 06:47:27;;;;;;;11.20;2.40;;;;;;;3.33;88.54;96865.44;111052;243;39054;-59
2023/12/22 06:50:09;;;;;;;11.80;2.70;;;;;;;3.30;88.01;96862.40;111056;243;40216;-57
2023/12/22 06:52:46;;;;;;;8.20;2.40;;;;;;;3.28;87.72;96868.23;111028;243;39492;-56
2023/12/22 06:55:27;;;;;;;9.70;2.50;;;;;;;3.27;87.20;96867.17;110818;241;154019;-56
2023/12/22 06:58:05;;;;;;;10.00;2.80;;;;;;;3.26;86.53;96855.21;111038;243;39639;-56
2023/12/22 07:00:43;;;;;;;12.60;2.60;;;;;;;3.29;85.96;96863.70;111097;243;39464;-56
2023/12/22 07:03:19;;;;;;;12.20;2.80;;;;;;;3.29;85.73;96864.73;111095;243;40855;-59
2023/12/22 07:05:55;;;;;;;12.40;2.60;;;;;;;3.28;84.77;96858.62;111120;243;39547;-59
2023/12/22 07:08:33;;;;;;;13.80;2.50;;;;;;;3.28;84.14;96867.56;110994;243;39499;-59
2023/12/22 07:11:09;;;;;;;10.50;1.90;;;;;;;3.25;84.05;96882.34;111032;243;39057;-59
2023/12/22 07:13:53;;;;;;;9.40;2.70;;;;;;;3.23;83.71;96893.88;110850;243;153787;-59
2023/12/22 07:16:33;;;;;;;9.80;2.70;;;;;;;3.21;83.60;96899.52;111048;243;39834;-56
2023/12/22 07:19:12;;;;;;;13.00;2.40;;;;;;;3.20;83.78;96898.50;110942;241;153039;-57
2023/12/22 07:21:50;;;;;;;12.60;2.30;;;;;;;3.18;83.66;96897.19;111059;243;41209;-59
2023/12/22 07:24:35;;;;;;;10.50;2.60;;;;;;;3.16;83.07;96896.56;111049;243;41037;-59
2023/12/22 07:27:18;;;;;;;13.60;3.20;;;;;;;3.15;82.63;96894.94;111085;243;40505;-60
2023/12/22 07:29:56;;;;;;;13.10;2.40;;;;;;;3.15;82.99;96898.88;110980;243;40428;-57
2023/12/22 07:32:32;;;;;;;12.40;3.00;;;;;;;3.15;82.77;96903.19;110952;243;39222;-59
2023/12/22 07:35:10;;;;;;;9.40;2.50;;;;;;;3.16;81.77;96901.61;111076;243;39665;-59
2023/12/22 07:37:48;;;;;;;8.60;1.90;;;;;;;3.17;82.06;96906.80;110836;242;155359;-58
2023/12/22 07:40:22;;;;;;;12.00;2.40;;;;;;;3.13;82.35;96911.04;111055;243;39576;-57
2023/12/22 07:43:02;;;;;;;9.20;2.70;;;;;;;3.13;82.28;96915.89;111102;243;39141;-57
2023/12/22 07:45:39;;;;;;;13.10;2.80;;;;;;;3.10;81.89;96920.73;111030;243;40743;-57
2023/12/22 07:48:19;;;;;;;9.20;2.50;;;;;;;3.05;81.47;96921.34;110879;241;154860;-56
2023/12/22 07:51:00;;;;;;;9.20;1.90;;;;;;;3.04;81.31;96924.55;111011;243;41608;-57
2023/12/22 07:53:42;;;;;;;12.70;2.30;;;;;;;3.08;81.23;96925.69;111132;243;40313;-56
2023/12/22 07:56:23;;;;;;;12.10;2.70;;;;;;;3.19;80.22;96926.30;110849;242;153633;-56
2023/12/22 07:59:03;;;;;;;14.60;2.30;;;;;;;3.31;80.99;96928.61;110558;243;562008;-56
2023/12/22 08:01:39;;;;;;;14.60;2.70;;;;;;;3.38;80.65;96933.55;111065;243;40073;-59
2023/12/22 08:04:15;;;;;;;10.10;2.20;;;;;;;3.42;80.89;96933.66;111050;243;40002;-60
2023/12/22 08:06:54;;;;;;;12.50;3.10;;;;;;;3.47;80.39;96924.35;110934;241;154927;-59
2023/12/22 08:09:30;;;;;;;7.70;1.90;;;;;;;3.48;80.21;96924.45;110980;243;38917;-60
2023/12/22 08:12:06;;;;;;;13.10;3.10;;;;;;;3.46;80.22;96936.39;111036;243;39688;-56
2023/12/22 08:14:42;;;;;;;12.40;2.40;;;;;;;3.48;80.08;96938.66;110829;241;154457;-56
2023/12/22 08:17:24;;;;;;;12.90;2.50;;;;;;;3.46;79.78;96934.84;111064;243;39611;-57
2023/12/22 08:20:03;;;;;;;9.90;2.70;;;;;;;3.50;80.00;96937.77;110841;241;153573;-58
2023/12/22 08:22:44;;;;;;;11.00;3.00;;;;;;;3.51;79.57;96949.32;111099;243;39472;-57
2023/12/22 08:25:23;;;;;;;11.70;3.10;;;;;;;3.55;79.75;96954.75;110887;242;154703;-57
2023/12/22 08:28:07;;;;;;;15.00;2.70;;;;;;;3.57;79.73;96963.60;111031;243;40519;-57
2023/12/22 08:30:43;;;;;;;11.90;3.00;;;;;;;3.60;79.58;96968.48;110941;241;154286;-57
2023/12/22 08:33:24;;;;;;;13.50;3.10;;;;;;;3.88;78.82;96977.55;111037;243;40891;-60
2023/12/22 08:36:06;;;;;;;9.70;2.70;;;;;;;4.35;78.59;96980.65;111123;243;39735;-60
2023/12/22 08:38:43;;;;;;;10.00;2.40;;;;;;;4.54;78.31;96990.23;110888;243;152697;-59
2023/12/22 08:41:23;;;;;;;12.00;3.00;;;;;;;4.48;77.65;96983.94;111107;243;39610;-60
2023/12/22 08:44:05;;;;;;;13.00;2.60;;;;;;;4.41;78.45;96989.29;110854;242;154722;-60
2023/12/22 08:46:42;;;;;;;11.40;2.60;;;;;;;4.37;78.60;96985.63;111063;243;39569;-59
2023/12/22 08:49:23;;;;;;;9.80;2.50;;;;;;;4.31;78.62;96990.09;110896;241;153751;-60
2023/12/22 08:52:03;;;;;;;12.50;2.90;;;;;;;4.29;78.66;96988.06;111014;243;39499;-59
2023/12/22 08:54:50;;;;;;;15.40;3.00;;;;;;;4.39;79.29;96979.53;110894;242;153626;-59
2023/12/22 08:57:28;;;;;;;8.90;2.50;;;;;;;4.71;79.52;96982.58;111008;243;39592;-59
2023/12/22 09:00:09;;;;;;;11.80;2.70;;;;;;;4.94;79.58;96987.16;111096;243;40310;-57
2023/12/22 09:02:45;;;;;;;11.80;2.70;;;;;;;5.19;78.91;96978.56;111061;243;41221;-59
2023/12/22 09:05:24;;;;;;;10.50;2.90;;;;;;;5.30;78.33;96973.96;111043;243;40126;-60
2023/12/22 09:08:03;;;;;;;11.00;3.00;;;;;;;5.11;78.10;96976.16;110879;241;154724;-60
2023/12/22 09:10:41;;;;;;;10.90;3.00;;;;;;;4.88;77.87;96974.95;111088;243;39519;-60
2023/12/22 09:13:24;;;;;;;12.60;3.20;;;;;;;4.74;78.19;96972.21;111106;243;39751;-60
2023/12/22 09:16:02;;;;;;;12.30;3.20;;;;;;;4.65;77.66;96972.98;111104;243;41378;-59
2023/12/22 09:18:39;;;;;;;10.90;2.70;;;;;;;4.75;77.46;96958.00;111015;241;154285;-57
2023/12/22 09:21:19;;;;;;;8.50;3.10;;;;;;;5.11;77.22;96959.41;111035;243;40283;-57
2023/12/22 09:23:55;;;;;;;15.00;3.10;;;;;;;5.48;76.26;96953.41;111087;243;39220;-58
2023/12/22 09:26:29;;;;;;;11.50;2.80;;;;;;;5.75;76.08;96950.30;110922;241;153615;-60
2023/12/22 09:29:06;;;;;;;8.20;2.40;;;;;;;6.33;75.80;96948.09;111077;243;40703;-59
2023/12/22 09:31:42;;;;;;;7.90;2.30;;;;;;;6.77;74.44;96933.36;110859;242;153552;-59
2023/12/22 09:34:20;;;;;;;8.80;2.70;;;;;;;6.35;71.98;96932.86;111017;243;39861;-60
2023/12/22 09:37:01;;;;;;;7.60;2.40;;;;;;;6.05;73.48;96923.20;111052;243;40698;-59
2023/12/22 09:39:39;;;;;;;10.80;2.70;;;;;;;5.97;74.55;96921.19;111097;243;39292;-61
2023/12/22 09:42:17;;;;;;;9.80;2.70;;;;;;;5.94;74.55;96910.66;111087;243;40775;-60
2023/12/22 09:45:12;;;;;;;8.50;2.70;;;;;;;6.03;72.74;96909.86;111057;243;41151;-60
2023/12/22 09:47:53;;;;;;;7.20;2.20;;;;;;;5.88;73.38;96909.05;111071;243;39076;-60
2023/12/22 09:50:39;;;;;;;7.00;2.60;;;;;;;5.69;71.55;96902.77;110957;240;153468;-60
2023/12/22 09:53:20;;;;;;;9.70;2.90;;;;;;;5.57;73.27;96901.67;111075;243;39864;-57
2023/12/22 09:56:05;;;;;;;8.70;2.00;;;;;;;5.39;73.12;96907.32;110922;242;153183;-57
2023/12/22 09:58:55;;;;;;;9.80;2.50;;;;;;;5.08;73.45;96911.80;111075;243;39442;-57
2023/12/22 10:01:32;;;;;;;8.80;2.50;;;;;;;4.77;73.74;96902.97;110948;243;153153;-58
2023/12/22 10:04:07;;;;;;;10.00;2.60;;;;;;;4.60;74.88;96914.87;111045;243;39808;-57
2023/12/22 10:06:45;;;;;;;8.80;2.10;;;;;;;4.32;75.57;96935.02;111143;241;153628;-56
2023/12/22 10:09:28;;;;;;;10.80;2.50;;;;;;;3.93;76.94;96961.05;111057;243;39846;-56
2023/12/22 10:12:04;;;;;;;5.40;1.40;;;;;;;3.56;77.92;96941.70;111231;243;39396;-59
2023/12/22 10:14:42;;;;;;;5.10;1.60;;;;;;;3.35;78.40;96944.64;110897;241;154067;-59
2023/12/22 10:17:23;;;;;;;8.40;1.60;;;;;;;3.24;78.80;96945.52;111232;243;40387;-60
2023/12/22 10:20:08;;;;;;;5.60;1.20;;;;;;;3.11;79.36;96944.91;110956;241;153808;-60
2023/12/22 10:22:47;;;;;;;4.00;1.00;;;;;;;2.96;79.55;96968.13;111174;243;40114;-63
2023/12/22 10:25:34;;;;;;;3.60;0.90;;;;;;;2.80;80.19;96965.38;111011;241;152868;-63
2023/12/22 10:28:15;;;;;;;5.60;0.90;;;;;;;2.59;80.73;96977.04;111111;243;39040;-58
2023/12/22 10:30:53;;;;;;;2.70;0.60;;;;;;;2.42;81.35;96971.40;111118;241;153281;-57
2023/12/22 10:33:35;;;;;;;5.60;1.20;;;;;;;2.29;81.63;96975.52;111011;243;39476;-56
2023/12/22 10:36:10;;;;;;;2.90;0.90;;;;;;;2.21;81.94;96978.05;111222;243;41080;-59
2023/12/22 10:38:46;;;;;;;2.70;0.70;;;;;;;2.11;82.38;96975.25;110905;241;155041;-59
2023/12/22 10:41:21;;;;;;;2.30;0.60;;;;;;;1.99;83.14;96974.38;111267;243;39552;-56
2023/12/22 10:44:01;;;;;;;2.20;1.40;;;;;;;1.97;83.16;96979.40;111007;241;153869;-56
2023/12/22 10:46:41;;;;;;;1.50;0.70;;;;;;;1.97;83.86;96968.52;111180;243;40039;-59
2023/12/22 10:49:18;;;;;;;2.20;0.80;;;;;;;2.01;84.13;96965.89;111081;241;154444;-61
2023/12/22 10:52:02;;;;;;;1.30;0.70;;;;;;;2.05;84.21;96948.65;111098;243;39018;-62
2023/12/22 10:54:42;;;;;;;2.00;0.90;;;;;;;2.05;84.81;96942.63;111241;243;39437;-62
2023/12/22 10:57:23;;;;;;;3.30;1.00;;;;;;;2.06;84.88;96938.44;111132;243;39362;-59
2023/12/22 11:00:03;;;;;;;3.20;1.30;;;;;;;2.13;84.86;96931.53;111192;243;41205;-58
2023/12/22 11:02:48;;;;;;;4.00;1.30;;;;;;;2.22;84.83;96925.50;110892;241;154071;-62
2023/12/22 11:05:30;;;;;;;5.00;1.40;;;;;;;2.30;84.89;96920.52;111239;243;40036;-61
2023/12/22 11:08:12;;;;;;;5.90;1.40;;;;;;;2.35;84.79;96921.58;111032;241;153079;-57
2023/12/22 11:11:07;;;;;;;6.30;1.70;;;;;;;2.37;84.72;96915.52;111211;243;39547;-57
2023/12/22 11:13:57;;;;;;;7.00;1.50;;;;;;;2.43;84.79;96913.28;111020;241;155051;-56
2023/12/22 11:16:34;;;;;;;3.70;1.60;;;;;;;2.48;84.91;96906.83;111164;243;40832;-58
2023/12/22 11:19:17;;;;;;;6.00;1.80;;;;;;;2.48;84.93;96899.67;111132;240;154451;-58
2023/12/22 11:21:59;;;;;;;5.90;2.40;;;;;;;2.46;84.78;96899.89;111189;243;39878;-56
2023/12/22 11:24:42;;;;;;;6.70;2.20;;;;;;;2.41;84.90;96892.94;111330;243;40648;-56
2023/12/22 11:27:23;;;;;;;4.80;2.20;;;;;;;2.46;85.05;96901.65;111034;243;41176;-60
2023/12/22 11:30:08;;;;;;;5.00;1.70;;;;;;;2.52;85.41;96897.07;111287;243;39317;-60
2023/12/22 11:32:48;;;;;;;5.70;1.80;;;;;;;2.56;85.34;96894.00;110968;243;154768;-59
2023/12/22 11:35:24;;;;;;;6.60;2.00;;;;;;;2.63;85.33;96893.73;111270;243;41177;-59
2023/12/22 11:38:03;;;;;;;8.40;2.00;;;;;;;2.70;85.26;96886.88;111036;241;153877;-58
2023/12/22 11:40:47;;;;;;;6.10;2.00;;;;;;;2.66;85.21;96885.54;111168;243;39692;-58
2023/12/22 11:43:26;;;;;;;6.80;2.10;;;;;;;2.62;85.17;96886.81;111027;241;154318;-58
2023/12/22 11:46:04;;;;;;;5.90;1.90;;;;;;;2.66;85.35;96877.23;111068;243;38954;-56
2023/12/22 11:48:50;;;;;;;6.60;2.10;;;;;;;2.68;85.32;96886.08;111238;243;40570;-56
2023/12/22 11:51:36;;;;;;;7.80;2.60;;;;;;;2.64;85.42;96889.98;111267;243;38855;-56
2023/12/22 11:54:49;;;;;;;8.30;1.90;;;;;;;2.54;85.63;96891.70;111247;243;39336;-57
2023/12/22 11:57:41;;;;;;;5.20;2.40;;;;;;;2.43;85.71;96888.13;110955;243;39683;-59
2023/12/22 12:00:56;;;;;;;4.40;1.90;;;;;;;2.41;85.82;96885.90;111255;243;38904;-59
2023/12/22 12:03:42;;;;;;;6.40;2.20;;;;;;;2.42;86.05;96881.67;110978;243;40048;-59
2023/12/22 12:06:36;;;;;;;5.90;2.30;;;;;;;2.48;86.25;96870.80;110961;243;40211;-59
2023/12/22 12:09:48;;;;;;;4.40;1.80;;;;;;;2.47;86.22;96867.30;110898;242;154205;-59
2023/12/22 12:12:28;;;;;;;6.50;2.80;;;;;;;2.55;86.52;96868.66;111149;243;39499;-59
2023/12/22 12:15:19;;;;;;;5.80;2.00;;;;;;;2.58;86.54;96862.98;110853;241;155581;-59
2023/12/22 12:17:55;;;;;;;6.00;2.10;;;;;;;2.60;86.81;96864.39;110988;243;39154;-60
2023/12/22 12:20:35;;;;;;;5.00;1.80;;;;;;;2.57;87.04;96860.13;111006;240;153991;-60
2023/12/22 12:23:17;;;;;;;5.20;1.90;;;;;;;2.63;87.32;96857.21;111200;243;40223;-57
2023/12/22 12:25:56;;;;;;;3.70;1.90;;;;;;;2.67;87.09;96854.30;111006;241;154392;-59
2023/12/22 12:28:36;;;;;;;5.40;2.00;;;;;;;2.64;87.24;96846.95;111069;243;41206;-58
2023/12/22 12:32:03;;;;;;;6.60;1.90;;;;;;;2.58;87.45;96846.95;111077;240;154809;-57
2023/12/22 12:34:43;;;;;;;;;;;;;;;2.51;87.71;96842.34;111200;243;39093;-57